Time;durP1;ratioP1;P1;durP2;ratioP2;P2;SDS_P1;SDS_P2;PMS_P1;PMS_P2;Temp;Humidity;BMP_temperature;BMP_pressure;BME280_temperature;BME280_humidity;BME280_pressure;Samples;Min_cycle;Max_cycle;Signal;HPM_P1;HPM_P2
2023/07/16 00:00:30;;;;;;;0.73;0.73;;;17.00;99.90;;;;;;4954378;28;20034;-77
2023/07/16 00:02:56;;;;;;;0.82;0.82;;;17.00;99.90;;;;;;4954210;28;20388;-79
2023/07/16 00:05:22;;;;;;;1.15;0.77;;;17.10;99.90;;;;;;4955103;28;20019;-78
2023/07/16 00:07:47;;;;;;;2.28;0.60;;;17.10;99.90;;;;;;4972547;28;20218;-79
2023/07/16 00:10:13;;;;;;;1.25;0.85;;;17.10;99.90;;;;;;4956959;28;20183;-79
2023/07/16 00:12:39;;;;;;;1.48;0.70;;;17.10;99.90;;;;;;4975305;28;20030;-78
2023/07/16 00:15:06;;;;;;;0.93;0.70;;;17.20;99.90;;;;;;4957891;28;20057;-78
2023/07/16 00:17:32;;;;;;;1.33;0.95;;;17.10;99.90;;;;;;4973809;28;20029;-78
2023/07/16 00:19:58;;;;;;;0.90;0.77;;;17.10;99.90;;;;;;4955357;28;20030;-79
2023/07/16 00:22:23;;;;;;;0.50;0.50;;;17.10;99.90;;;;;;4972741;28;20177;-79
2023/07/16 00:24:49;;;;;;;1.38;0.57;;;17.10;99.90;;;;;;4956230;28;20114;-78
2023/07/16 00:27:15;;;;;;;1.55;0.95;;;17.10;99.90;;;;;;4955421;28;20038;-78
2023/07/16 00:29:40;;;;;;;2.00;0.80;;;17.10;99.90;;;;;;4971263;28;20022;-78
2023/07/16 00:32:06;;;;;;;2.13;1.02;;;17.10;99.90;;;;;;4971382;28;20027;-78
2023/07/16 00:34:32;;;;;;;1.30;0.60;;;17.10;99.90;;;;;;4970745;28;20518;-78
2023/07/16 00:37:01;;;;;;;2.42;0.77;;;17.00;99.90;;;;;;4953154;28;20015;-78
2023/07/16 00:39:28;;;;;;;1.63;0.95;;;17.00;99.90;;;;;;4953249;28;20034;-79
2023/07/16 00:41:53;;;;;;;1.30;0.60;;;16.90;99.90;;;;;;4971068;28;20127;-77
2023/07/16 00:44:19;;;;;;;0.90;0.77;;;16.80;99.90;;;;;;4953177;28;20567;-79
2023/07/16 00:46:44;;;;;;;0.85;0.60;;;16.70;99.90;;;;;;4970832;28;20453;-79
2023/07/16 00:49:10;;;;;;;1.10;1.02;;;16.60;99.90;;;;;;4954135;28;20027;-78
2023/07/16 00:51:36;;;;;;;0.85;0.85;;;16.50;99.90;;;;;;4971281;28;20263;-78
2023/07/16 00:54:02;;;;;;;4.45;1.05;;;16.40;99.90;;;;;;4954704;28;20518;-77
2023/07/16 00:56:28;;;;;;;3.72;1.33;;;16.30;99.90;;;;;;4971128;28;20030;-78
2023/07/16 00:58:54;;;;;;;1.90;1.13;;;16.30;99.90;;;;;;4953147;28;20093;-79
2023/07/16 01:01:19;;;;;;;0.98;0.80;;;16.30;99.90;;;;;;4953235;28;20034;-78
2023/07/16 01:03:45;;;;;;;3.47;0.70;;;16.30;99.90;;;;;;4970080;28;20241;-78
2023/07/16 01:06:33;;;;;;;2.67;0.80;;;16.30;99.90;;;;;;4952907;28;20507;-79
2023/07/16 01:09:08;;;;;;;0.90;0.90;;;16.20;99.90;;;;;;4953042;28;20058;-78
2023/07/16 01:11:35;;;;;;;1.20;0.82;;;16.30;99.90;;;;;;4970119;28;20487;-78
2023/07/16 01:14:02;;;;;;;1.13;0.70;;;16.30;99.90;;;;;;4970147;28;20031;-78
2023/07/16 01:16:28;;;;;;;1.17;0.95;;;16.30;99.90;;;;;;4952800;28;20078;-78
2023/07/16 01:18:53;;;;;;;0.65;0.65;;;16.30;99.90;;;;;;4970015;28;20031;-78
2023/07/16 01:21:22;;;;;;;1.02;0.80;;;16.30;99.90;;;;;;4970038;28;20142;-78
2023/07/16 01:24:39;;;;;;;1.77;1.10;;;16.20;99.90;;;;;;4952928;28;20031;-78
2023/07/16 01:27:24;;;;;;;0.90;0.90;;;16.20;99.90;;;;;;4926766;28;20069;-78
2023/07/16 01:29:55;;;;;;;0.82;0.80;;;16.20;99.90;;;;;;4952929;28;20109;-78
2023/07/16 01:32:22;;;;;;;2.22;1.05;;;16.20;99.90;;;;;;4956194;28;20034;-78
2023/07/16 01:34:51;;;;;;;2.08;0.60;;;16.10;99.90;;;;;;4955913;28;20360;-79
2023/07/16 01:37:19;;;;;;;1.13;0.82;;;16.10;99.90;;;;;;4974067;28;20097;-79
2023/07/16 01:39:45;;;;;;;1.47;0.97;;;16.20;99.90;;;;;;4973967;28;20030;-79
2023/07/16 01:42:12;;;;;;;0.57;0.55;;;16.20;99.90;;;;;;4956053;28;20270;-79
2023/07/16 01:44:37;;;;;;;1.67;1.17;;;16.20;99.90;;;;;;4973806;28;20030;-79
2023/07/16 01:47:11;;;;;;;0.55;0.55;;;16.30;99.90;;;;;;4973217;28;20039;-78
2023/07/16 01:49:37;;;;;;;2.53;0.75;;;16.30;99.90;;;;;;4955885;28;20018;-79
2023/07/16 01:52:04;;;;;;;2.58;0.88;;;16.20;99.90;;;;;;4955924;28;20027;-78
2023/07/16 01:54:30;;;;;;;3.00;0.70;;;16.30;99.90;;;;;;4955799;28;20022;-78
2023/07/16 01:56:56;;;;;;;1.05;0.90;;;16.30;99.90;;;;;;4955671;28;20391;-79
2023/07/16 01:59:22;;;;;;;0.70;0.70;;;16.30;99.90;;;;;;4955921;28;20074;-79
2023/07/16 02:01:47;;;;;;;2.83;1.05;;;16.40;99.90;;;;;;4955637;28;20158;-79
2023/07/16 02:04:13;;;;;;;0.60;0.60;;;16.40;99.90;;;;;;4972651;28;20018;-79
2023/07/16 02:06:38;;;;;;;2.97;1.00;;;16.40;99.90;;;;;;4973138;28;20045;-79
2023/07/16 02:09:04;;;;;;;1.38;1.02;;;16.30;99.90;;;;;;4955774;28;20027;-78
2023/07/16 02:11:30;;;;;;;1.92;0.90;;;16.40;99.90;;;;;;4955697;28;20483;-79
2023/07/16 02:13:55;;;;;;;5.05;1.55;;;16.40;99.90;;;;;;4955577;28;20089;-79
2023/07/16 02:16:21;;;;;;;1.92;0.82;;;16.40;99.90;;;;;;4955465;28;20066;-79
2023/07/16 02:18:47;;;;;;;0.50;0.50;;;16.40;99.90;;;;;;4955239;28;20490;-78
2023/07/16 02:21:12;;;;;;;1.00;1.00;;;16.40;99.90;;;;;;4955250;28;20054;-78
2023/07/16 02:23:38;;;;;;;2.25;1.30;;;16.40;99.90;;;;;;4955574;28;20019;-79
2023/07/16 02:26:03;;;;;;;0.90;0.90;;;16.30;99.90;;;;;;4955232;28;20130;-78
2023/07/16 02:28:29;;;;;;;2.45;1.05;;;16.20;99.90;;;;;;4955381;28;20031;-79
2023/07/16 02:30:55;;;;;;;0.90;0.70;;;16.20;99.90;;;;;;4955630;28;20086;-79
2023/07/16 02:33:20;;;;;;;2.53;0.82;;;16.20;99.90;;;;;;4954877;28;20496;-79
2023/07/16 02:35:51;;;;;;;0.80;0.80;;;16.10;99.90;;;;;;4955240;28;20031;-78
2023/07/16 02:38:17;;;;;;;3.05;1.17;;;16.20;99.90;;;;;;4955328;28;20027;-79
2023/07/16 02:40:47;;;;;;;1.08;0.73;;;16.20;99.90;;;;;;4955172;28;20142;-79
2023/07/16 02:43:13;;;;;;;3.28;0.93;;;16.10;99.90;;;;;;4971417;28;20114;-79
2023/07/16 02:45:40;;;;;;;1.15;1.00;;;16.10;99.90;;;;;;4972831;28;20023;-79
2023/07/16 02:48:06;;;;;;;4.32;0.93;;;16.10;99.90;;;;;;4955426;28;20533;-79
2023/07/16 02:50:36;;;;;;;0.50;0.50;;;16.00;99.90;;;;;;4954869;28;20034;-78
2023/07/16 02:53:02;;;;;;;;;;;15.90;99.90;;;;;;4955551;28;20075;-79
2023/07/16 02:55:27;;;;;;;1.38;1.00;;;15.90;99.90;;;;;;4954569;28;20021;-79
2023/07/16 02:57:53;;;;;;;4.00;1.15;;;15.80;99.90;;;;;;4971941;28;20176;-79
2023/07/16 03:00:19;;;;;;;1.45;0.90;;;15.70;99.90;;;;;;4954577;28;20038;-78
2023/07/16 03:02:44;;;;;;;1.58;1.10;;;15.70;99.90;;;;;;4954531;28;20033;-79
2023/07/16 03:05:10;;;;;;;1.25;0.90;;;15.70;99.90;;;;;;4971699;28;20098;-78
2023/07/16 03:07:36;;;;;;;0.77;0.68;;;15.60;99.90;;;;;;4971973;28;20097;-79
2023/07/16 03:10:01;;;;;;;2.13;0.70;;;15.50;99.90;;;;;;4954704;28;20027;-78
2023/07/16 03:12:27;;;;;;;2.17;1.52;;;15.40;99.90;;;;;;4972376;28;20034;-78
2023/07/16 03:14:54;;;;;;;0.82;0.82;;;15.40;99.90;;;;;;4954694;28;20033;-79
2023/07/16 03:17:21;;;;;;;10.68;1.00;;;15.30;99.90;;;;;;4971798;28;20027;-78
2023/07/16 03:19:47;;;;;;;1.58;1.45;;;15.30;99.90;;;;;;4954423;28;20022;-79
2023/07/16 03:22:13;;;;;;;1.15;0.80;;;15.20;99.90;;;;;;4971239;28;20078;-78
2023/07/16 03:24:39;;;;;;;2.10;0.75;;;15.20;99.90;;;;;;4954390;28;20057;-78
2023/07/16 03:27:05;;;;;;;6.93;1.20;;;15.30;99.90;;;;;;4954116;28;20039;-79
2023/07/16 03:29:35;;;;;;;0.98;0.60;;;15.10;99.90;;;;;;4971410;28;20023;-78
2023/07/16 03:32:01;;;;;;;1.23;0.80;;;15.10;99.90;;;;;;4972020;28;20035;-78
2023/07/16 03:34:27;;;;;;;4.00;0.90;;;15.10;99.90;;;;;;4954846;28;20101;-78
2023/07/16 03:36:52;;;;;;;2.70;0.90;;;15.00;99.90;;;;;;4954181;28;20518;-78
2023/07/16 03:39:18;;;;;;;0.93;0.77;;;15.10;99.90;;;;;;4954534;28;20033;-78
2023/07/16 03:41:44;;;;;;;3.33;1.05;;;15.10;99.90;;;;;;4954398;28;20054;-79
2023/07/16 03:44:10;;;;;;;0.77;0.77;;;15.00;99.90;;;;;;4971646;28;20455;-79
2023/07/16 03:46:36;;;;;;;1.55;0.65;;;15.00;99.90;;;;;;4953992;28;20053;-78
2023/07/16 03:49:01;;;;;;;0.52;0.50;;;15.00;99.90;;;;;;4953579;28;20106;-78
2023/07/16 03:51:27;;;;;;;2.17;1.02;;;15.00;99.90;;;;;;4953271;28;20031;-78
2023/07/16 03:53:53;;;;;;;10.93;1.75;;;14.90;99.90;;;;;;4953486;28;20022;-79
2023/07/16 03:56:18;;;;;;;2.30;1.20;;;14.90;99.90;;;;;;4972051;28;20140;-78
2023/07/16 03:58:44;;;;;;;1.73;1.50;;;14.90;99.90;;;;;;4954260;28;20223;-78
2023/07/16 04:01:09;;;;;;;1.25;0.70;;;15.00;99.90;;;;;;4971155;28;20093;-78
2023/07/16 04:03:35;;;;;;;2.13;0.70;;;15.00;99.90;;;;;;4971266;28;20482;-79
2023/07/16 04:06:03;;;;;;;1.45;0.70;;;14.90;99.90;;;;;;4970591;28;20472;-78
2023/07/16 04:08:28;;;;;;;4.13;0.60;;;14.90;99.90;;;;;;4971379;28;20034;-79
2023/07/16 04:10:54;;;;;;;0.70;0.70;;;14.90;99.90;;;;;;4971448;28;20027;-79
2023/07/16 04:13:19;;;;;;;3.20;0.68;;;14.90;99.90;;;;;;4971389;28;20073;-79
2023/07/16 04:15:45;;;;;;;2.42;1.25;;;14.90;99.90;;;;;;4970925;28;20037;-79
2023/07/16 04:18:11;;;;;;;6.30;1.13;;;15.00;99.90;;;;;;4953749;28;20387;-78
2023/07/16 04:20:36;;;;;;;5.72;1.35;;;15.00;99.90;;;;;;4953089;28;20443;-78
2023/07/16 04:23:02;;;;;;;3.60;0.98;;;15.10;99.90;;;;;;4953125;28;20378;-79
2023/07/16 04:25:27;;;;;;;2.92;1.25;;;15.20;99.90;;;;;;4971003;28;20038;-79
2023/07/16 04:27:53;;;;;;;2.10;1.48;;;15.10;99.90;;;;;;4970685;28;20122;-79
2023/07/16 04:30:19;;;;;;;2.38;1.10;;;15.20;99.90;;;;;;4953079;28;20023;-80
2023/07/16 04:32:44;;;;;;;0.68;0.65;;;15.10;99.90;;;;;;4955143;28;20030;-79
2023/07/16 04:35:10;;;;;;;0.77;0.70;;;15.10;99.90;;;;;;4954155;28;20031;-79
2023/07/16 04:37:35;;;;;;;1.23;1.13;;;15.10;99.90;;;;;;4970597;28;20031;-79
2023/07/16 04:40:01;;;;;;;1.40;0.80;;;15.00;99.90;;;;;;4953273;28;20023;-79
2023/07/16 04:42:27;;;;;;;2.60;0.80;;;15.10;99.90;;;;;;4953263;28;20077;-78
2023/07/16 04:44:52;;;;;;;3.40;0.77;;;15.00;99.90;;;;;;4970441;28;20082;-79
2023/07/16 04:47:18;;;;;;;0.88;0.88;;;14.90;99.90;;;;;;4970144;28;20439;-79
2023/07/16 04:49:44;;;;;;;0.90;0.88;;;15.00;99.90;;;;;;4953001;28;20044;-78
2023/07/16 04:52:09;;;;;;;3.55;0.73;;;15.10;99.90;;;;;;4952561;28;20031;-79
2023/07/16 04:54:38;;;;;;;5.43;1.20;;;15.10;99.90;;;;;;4953018;28;20048;-79
2023/07/16 04:57:06;;;;;;;0.93;0.85;;;15.20;99.90;;;;;;4953094;28;20185;-79
2023/07/16 04:59:31;;;;;;;1.60;0.95;;;15.30;99.90;;;;;;4952946;28;20119;-79
2023/07/16 05:01:57;;;;;;;2.67;0.60;;;15.40;99.90;;;;;;4971127;28;20105;-78
2023/07/16 05:04:22;;;;;;;4.63;1.20;;;15.40;99.90;;;;;;4953889;28;20050;-79
2023/07/16 05:06:48;;;;;;;0.85;0.60;;;15.50;99.90;;;;;;4955963;28;20130;-78
2023/07/16 05:09:14;;;;;;;0.80;0.80;;;15.40;99.90;;;;;;4956717;28;20463;-79
2023/07/16 05:11:39;;;;;;;2.65;1.27;;;15.50;99.90;;;;;;4956730;28;20030;-78
2023/07/16 05:14:05;;;;;;;0.57;0.55;;;15.60;99.90;;;;;;4957062;28;20026;-78
2023/07/16 05:16:30;;;;;;;4.10;1.70;;;15.70;99.90;;;;;;4956468;28;20419;-78
2023/07/16 05:18:56;;;;;;;1.50;1.45;;;15.80;99.90;;;;;;4956629;28;20506;-78
2023/07/16 05:21:22;;;;;;;1.13;1.02;;;15.90;99.90;;;;;;4973417;28;20093;-78
2023/07/16 05:23:47;;;;;;;0.98;0.80;;;15.80;99.90;;;;;;4956385;28;20552;-78
2023/07/16 05:26:13;;;;;;;0.73;0.73;;;15.80;99.90;;;;;;4973623;28;20356;-79
2023/07/16 05:28:38;;;;;;;7.53;0.93;;;16.00;99.90;;;;;;4956172;28;20026;-78
2023/07/16 05:31:04;;;;;;;2.35;0.80;;;16.30;99.90;;;;;;4973965;28;20027;-78
2023/07/16 05:33:30;;;;;;;2.05;0.88;;;16.40;99.90;;;;;;4973819;28;20458;-78
2023/07/16 05:35:56;;;;;;;2.08;1.20;;;16.40;99.90;;;;;;4955766;28;20105;-79
2023/07/16 05:38:22;;;;;;;2.08;0.70;;;16.50;99.90;;;;;;4973816;28;20077;-79
2023/07/16 05:40:48;;;;;;;2.45;1.05;;;16.50;99.90;;;;;;4956034;28;20022;-79
2023/07/16 05:43:14;;;;;;;1.35;0.88;;;16.60;99.90;;;;;;4955807;28;20026;-78
2023/07/16 05:45:40;;;;;;;5.72;1.83;;;16.70;99.90;;;;;;4973294;28;20123;-79
2023/07/16 05:48:06;;;;;;;0.90;0.90;;;16.70;99.90;;;;;;4955998;28;20081;-79
2023/07/16 05:50:32;;;;;;;1.02;0.57;;;16.80;99.90;;;;;;4955440;28;20034;-78
2023/07/16 05:52:57;;;;;;;1.08;1.08;;;16.60;99.90;;;;;;4973619;28;20027;-78
2023/07/16 05:55:23;;;;;;;3.15;0.73;;;16.70;99.90;;;;;;4955850;28;20027;-79
2023/07/16 05:57:48;;;;;;;3.10;0.80;;;16.60;99.90;;;;;;4955905;28;20034;-78
2023/07/16 06:00:14;;;;;;;3.42;0.75;;;16.70;99.90;;;;;;4955770;28;20323;-78
2023/07/16 06:02:40;;;;;;;1.67;0.47;;;16.80;99.90;;;;;;4955750;28;20019;-78
2023/07/16 06:05:06;;;;;;;2.70;1.05;;;17.00;99.90;;;;;;4955439;28;20022;-79
2023/07/16 06:07:32;;;;;;;1.13;0.85;;;17.20;99.90;;;;;;4955325;28;20031;-79
2023/07/16 06:09:58;;;;;;;1.98;0.73;;;17.40;99.90;;;;;;4955651;28;20023;-79
2023/07/16 06:12:24;;;;;;;2.25;0.80;;;17.50;99.90;;;;;;4973172;28;20034;-78
2023/07/16 06:14:49;;;;;;;5.20;1.45;;;17.60;99.90;;;;;;4955618;28;20022;-79
2023/07/16 06:17:15;;;;;;;1.75;1.02;;;17.90;99.90;;;;;;4972799;28;20090;-79
2023/07/16 06:19:41;;;;;;;2.92;0.85;;;18.20;99.90;;;;;;4955425;28;20074;-78
2023/07/16 06:22:08;;;;;;;4.63;0.80;;;18.40;99.90;;;;;;4972191;28;20074;-79
2023/07/16 06:24:34;;;;;;;2.10;0.93;;;18.60;99.90;;;;;;4955426;28;20095;-78
2023/07/16 06:27:00;;;;;;;3.00;1.00;;;18.60;99.90;;;;;;4973113;28;20077;-79
2023/07/16 06:29:26;;;;;;;2.35;1.10;;;18.60;99.90;;;;;;4973182;28;20432;-79
2023/07/16 06:31:58;;;;;;;6.18;1.35;;;18.80;99.90;;;;;;4955795;28;20037;-78
2023/07/16 06:34:25;;;;;;;2.97;1.30;;;18.70;99.90;;;;;;4972957;28;20529;-79
2023/07/16 06:36:50;;;;;;;5.10;1.58;;;18.90;99.90;;;;;;4954881;28;20035;-79
2023/07/16 06:39:16;;;;;;;4.50;1.98;;;19.30;99.90;;;;;;4955291;28;20336;-78
2023/07/16 06:41:42;;;;;;;4.22;1.35;;;19.60;99.90;;;;;;4972648;28;20027;-79
2023/07/16 06:44:07;;;;;;;2.75;0.60;;;19.90;99.90;;;;;;4955421;28;20030;-78
2023/07/16 06:46:33;;;;;;;1.38;0.98;;;20.10;99.90;;;;;;4973803;28;20039;-78
2023/07/16 06:48:58;;;;;;;4.88;1.08;;;19.80;99.90;;;;;;4973651;28;20130;-79
2023/07/16 06:51:24;;;;;;;3.45;0.85;;;19.70;99.90;;;;;;4972030;28;20027;-78
2023/07/16 06:53:50;;;;;;;3.83;1.20;;;19.70;99.90;;;;;;4955128;28;20468;-79
2023/07/16 06:56:15;;;;;;;3.65;1.00;;;19.40;99.90;;;;;;4972332;28;20120;-78
2023/07/16 06:58:41;;;;;;;6.80;1.10;;;19.70;99.90;;;;;;4954940;28;20030;-78
2023/07/16 07:01:07;;;;;;;3.72;0.88;;;19.70;99.90;;;;;;4955508;28;20027;-79
2023/07/16 07:03:35;;;;;;;4.22;0.90;;;19.30;99.90;;;;;;4956499;28;20112;-78
2023/07/16 07:06:04;;;;;;;1.83;0.80;;;18.70;99.90;;;;;;4956049;28;20026;-79
2023/07/16 07:08:30;;;;;;;1.27;0.80;;;18.50;99.90;;;;;;4955110;28;20102;-78
2023/07/16 07:10:56;;;;;;;2.35;0.85;;;18.90;99.90;;;;;;4954975;28;20026;-78
2023/07/16 07:13:22;;;;;;;4.38;1.42;;;20.30;99.90;;;;;;4954669;28;20478;-79
2023/07/16 07:15:48;;;;;;;2.00;0.80;;;21.60;99.90;;;;;;4954397;28;20454;-79
2023/07/16 07:18:13;;;;;;;2.60;0.90;;;22.30;99.90;;;;;;4972136;28;20023;-80
2023/07/16 07:20:40;;;;;;;1.58;0.70;;;22.40;99.90;;;;;;4954924;28;20051;-80
2023/07/16 07:23:06;;;;;;;1.60;0.90;;;21.50;99.90;;;;;;4973792;28;20050;-79
2023/07/16 07:25:31;;;;;;;2.72;1.13;;;21.30;99.90;;;;;;4956716;28;20476;-79
2023/07/16 07:27:57;;;;;;;1.15;1.08;;;20.80;99.90;;;;;;4956401;28;20126;-79
2023/07/16 07:30:23;;;;;;;3.63;0.88;;;20.30;99.90;;;;;;4956712;28;20027;-79
2023/07/16 07:32:48;;;;;;;4.30;1.42;;;20.30;99.90;;;;;;4978794;28;20027;-79
2023/07/16 07:35:14;;;;;;;2.28;0.80;;;20.40;99.90;;;;;;4958883;28;20042;-79
2023/07/16 07:37:40;;;;;;;7.20;0.80;;;21.50;99.90;;;;;;4975928;28;20037;-80
2023/07/16 07:40:07;;;;;;;4.43;1.25;;;22.00;99.90;;;;;;4972349;28;20110;-81
2023/07/16 07:42:33;;;;;;;5.47;0.95;;;22.50;99.90;;;;;;4971871;28;20182;-82
2023/07/16 07:44:58;;;;;;;3.92;1.33;;;23.10;97.00;;;;;;4972903;28;20573;-80
2023/07/16 07:47:24;;;;;;;9.55;0.90;;;22.30;99.20;;;;;;4972964;28;20112;-80
2023/07/16 07:49:53;;;;;;;6.72;1.15;;;21.90;99.90;;;;;;4954197;28;20023;-81
2023/07/16 07:52:19;;;;;;;7.13;1.20;;;22.00;99.80;;;;;;4972436;28;20054;-80
2023/07/16 07:54:44;;;;;;;6.80;1.67;;;22.00;99.70;;;;;;4972142;28;20061;-79
2023/07/16 07:57:10;;;;;;;2.80;1.52;;;21.90;95.70;;;;;;4972127;28;20447;-81
2023/07/16 07:59:35;;;;;;;4.13;1.20;;;22.30;95.60;;;;;;4956822;28;20095;-81
2023/07/16 08:02:01;;;;;;;4.80;0.98;;;22.60;95.80;;;;;;4955176;28;20267;-80
2023/07/16 08:04:27;;;;;;;1.88;0.88;;;22.80;91.70;;;;;;4973669;28;20027;-80
2023/07/16 08:06:54;;;;;;;2.22;0.65;;;22.80;93.90;;;;;;4973513;28;20064;-80
2023/07/16 08:09:20;;;;;;;6.30;0.90;;;23.40;93.40;;;;;;4953759;28;20534;-79
2023/07/16 08:11:45;;;;;;;2.13;1.02;;;23.20;93.00;;;;;;4954963;28;20133;-80
2023/07/16 08:14:11;;;;;;;5.53;2.17;;;23.00;92.80;;;;;;4954468;28;20019;-79
2023/07/16 08:16:37;;;;;;;4.07;1.52;;;22.80;93.80;;;;;;4971139;28;20061;-78
2023/07/16 08:19:02;;;;;;;7.10;2.25;;;23.10;91.50;;;;;;4955212;28;20122;-80
2023/07/16 08:21:28;;;;;;;2.55;1.17;;;23.30;93.40;;;;;;4953615;28;20495;-79
2023/07/16 08:23:53;;;;;;;4.70;1.33;;;23.10;92.90;;;;;;4971249;28;20034;-79
2023/07/16 08:26:19;;;;;;;2.00;1.58;;;22.50;92.70;;;;;;4955326;28;20066;-79
2023/07/16 08:28:45;;;;;;;5.68;1.70;;;21.70;93.10;;;;;;4972101;28;20513;-80
2023/07/16 08:31:12;;;;;;;5.43;1.88;;;21.30;93.60;;;;;;4953858;28;20515;-79
2023/07/16 08:33:38;;;;;;;1.65;1.05;;;21.10;94.30;;;;;;4971150;28;20019;-79
2023/07/16 08:36:04;;;;;;;5.13;1.33;;;21.20;94.00;;;;;;4953460;28;20034;-78
2023/07/16 08:38:30;;;;;;;5.28;1.00;;;22.20;93.00;;;;;;4953148;28;20118;-78
2023/07/16 08:40:55;;;;;;;3.20;1.15;;;23.60;91.70;;;;;;4974597;28;20492;-78
2023/07/16 08:43:22;;;;;;;3.47;1.00;;;23.20;90.60;;;;;;4959666;28;20494;-77
2023/07/16 08:45:49;;;;;;;5.35;1.38;;;22.50;92.70;;;;;;4959767;28;20030;-78
2023/07/16 08:48:19;;;;;;;1.50;1.10;;;22.40;93.30;;;;;;4957923;28;20628;-78
2023/07/16 08:50:49;;;;;;;5.35;0.95;;;21.60;94.20;;;;;;4977137;28;20030;-78
2023/07/16 08:53:18;;;;;;;2.35;1.35;;;21.10;96.10;;;;;;4977745;28;20031;-78
2023/07/16 08:55:47;;;;;;;2.88;1.25;;;20.90;97.10;;;;;;4958077;28;20606;-77
2023/07/16 08:58:17;;;;;;;1.63;0.95;;;21.20;95.70;;;;;;4978025;28;20027;-79
2023/07/16 09:00:44;;;;;;;2.05;0.95;;;20.90;96.40;;;;;;4976607;28;20497;-79
2023/07/16 09:03:14;;;;;;;1.20;1.02;;;20.90;96.60;;;;;;4959780;28;20038;-79
2023/07/16 09:05:40;;;;;;;0.80;0.70;;;20.90;98.10;;;;;;4959423;28;20170;-77
2023/07/16 09:08:06;;;;;;;5.40;1.58;;;20.80;97.90;;;;;;4959726;28;20604;-77
2023/07/16 09:10:32;;;;;;;2.22;0.93;;;20.70;98.20;;;;;;4977968;28;20275;-78
2023/07/16 09:12:59;;;;;;;5.85;1.00;;;21.10;97.80;;;;;;4977199;28;20263;-78
2023/07/16 09:15:26;;;;;;;4.30;1.33;;;21.20;97.50;;;;;;4976409;28;20031;-77
2023/07/16 09:17:54;;;;;;;2.20;1.00;;;21.50;97.70;;;;;;4973842;28;20027;-78
2023/07/16 09:20:20;;;;;;;2.05;0.90;;;21.70;96.90;;;;;;4958965;28;20042;-77
2023/07/16 09:22:47;;;;;;;6.43;1.25;;;22.00;99.90;;;;;;4958232;28;20029;-78
2023/07/16 09:25:13;;;;;;;3.42;1.17;;;22.30;98.20;;;;;;4958031;28;20054;-79
2023/07/16 09:27:39;;;;;;;2.67;1.08;;;22.30;96.80;;;;;;4960882;28;20066;-78
2023/07/16 09:30:15;;;;;;;5.05;1.63;;;22.10;96.60;;;;;;4960597;28;20126;-78
2023/07/16 09:32:41;;;;;;;3.38;1.20;;;21.90;97.30;;;;;;4959319;28;20423;-79
2023/07/16 09:35:13;;;;;;;5.15;1.15;;;21.90;96.40;;;;;;4973356;28;20033;-77
2023/07/16 09:37:40;;;;;;;3.17;0.95;;;22.40;96.20;;;;;;4973359;28;20027;-78
2023/07/16 09:40:10;;;;;;;4.85;2.22;;;22.80;96.40;;;;;;4956285;28;20054;-77
2023/07/16 09:42:41;;;;;;;1.55;0.75;;;22.80;94.70;;;;;;4956109;28;20050;-77
2023/07/16 09:45:08;;;;;;;2.50;1.25;;;22.60;93.80;;;;;;4955963;28;20027;-77
2023/07/16 09:47:37;;;;;;;3.30;1.13;;;22.80;95.00;;;;;;4955971;28;20039;-78
2023/07/16 09:50:04;;;;;;;3.50;0.93;;;23.60;94.40;;;;;;4973788;28;20468;-77
2023/07/16 09:52:32;;;;;;;2.25;0.75;;;23.40;92.10;;;;;;4956138;28;20027;-77
2023/07/16 09:55:01;;;;;;;2.28;1.20;;;23.40;93.40;;;;;;4955622;28;20023;-78
2023/07/16 09:57:31;;;;;;;1.58;1.10;;;23.90;92.60;;;;;;4972955;28;20085;-78
2023/07/16 10:00:00;;;;;;;5.20;1.77;;;24.20;90.50;;;;;;4955469;28;20143;-78
2023/07/16 10:02:26;;;;;;;3.38;1.42;;;24.50;89.80;;;;;;4955834;28;20023;-77
2023/07/16 10:04:55;;;;;;;5.43;1.23;;;24.30;90.50;;;;;;4972696;28;20073;-78
2023/07/16 10:07:22;;;;;;;;;;;24.40;90.40;;;;;;4955835;28;20041;-78
2023/07/16 10:09:56;;;;;;;2.00;1.38;;;24.00;90.60;;;;;;4972897;28;19917;-79
2023/07/16 10:12:24;;;;;;;2.53;0.77;;;24.00;90.50;;;;;;4955388;28;20026;-79
2023/07/16 10:14:56;;;;;;;5.82;1.58;;;23.50;92.10;;;;;;4972702;28;20494;-79
2023/07/16 10:17:27;;;;;;;4.53;1.08;;;22.90;93.60;;;;;;4973130;28;20543;-80
2023/07/16 10:20:10;;;;;;;3.03;1.10;;;22.70;92.30;;;;;;4972702;28;20110;-78
2023/07/16 10:22:43;;;;;;;1.30;1.10;;;22.60;93.50;;;;;;4955425;28;20047;-78
2023/07/16 10:25:18;;;;;;;8.27;1.70;;;21.90;94.10;;;;;;4955201;28;20031;-80
2023/07/16 10:27:45;;;;;;;7.20;1.40;;;22.30;95.80;;;;;;4955292;28;20043;-79
2023/07/16 10:30:11;;;;;;;3.08;1.02;;;23.10;93.90;;;;;;4972852;28;20257;-79
2023/07/16 10:32:37;;;;;;;3.10;0.95;;;22.70;92.70;;;;;;4955782;28;20278;-78
2023/07/16 10:35:05;;;;;;;4.32;1.98;;;22.50;94.30;;;;;;4974677;28;20019;-79
2023/07/16 10:37:31;;;;;;;3.60;0.90;;;22.20;93.90;;;;;;4972748;28;20114;-78
2023/07/16 10:39:58;;;;;;;5.20;2.05;;;22.50;95.80;;;;;;4955136;28;20101;-78
2023/07/16 10:42:25;;;;;;;1.48;1.20;;;23.40;93.30;;;;;;4954898;28;20499;-78
2023/07/16 10:44:57;;;;;;;5.97;1.90;;;23.50;91.90;;;;;;4972348;28;20476;-79
2023/07/16 10:47:34;;;;;;;2.78;1.25;;;23.70;92.80;;;;;;4954712;28;20066;-77
2023/07/16 10:50:00;;;;;;;6.40;1.92;;;23.40;92.70;;;;;;4971857;28;20108;-79
2023/07/16 10:52:27;;;;;;;6.65;1.58;;;22.80;93.30;;;;;;4972319;28;20023;-78
2023/07/16 10:54:57;;;;;;;3.38;0.90;;;22.80;93.90;;;;;;4972965;28;20409;-78
2023/07/16 10:57:24;;;;;;;2.25;1.15;;;22.20;94.80;;;;;;4972318;28;20090;-79
2023/07/16 10:59:54;;;;;;;3.58;1.38;;;22.00;95.80;;;;;;4954990;28;20027;-79
2023/07/16 11:02:22;;;;;;;4.03;1.08;;;22.00;96.40;;;;;;4954075;28;20027;-78
2023/07/16 11:04:48;;;;;;;1.83;1.30;;;22.50;97.90;;;;;;4953687;28;20034;-79
2023/07/16 11:07:15;;;;;;;3.80;1.42;;;22.80;95.30;;;;;;4954816;28;20129;-78
2023/07/16 11:09:53;;;;;;;3.78;1.30;;;22.80;95.00;;;;;;4954637;28;20482;-79
2023/07/16 11:12:21;;;;;;;2.83;1.88;;;23.10;93.70;;;;;;4954569;28;20031;-78
2023/07/16 11:14:57;;;;;;;2.25;1.17;;;23.50;93.60;;;;;;4954554;28;20065;-78
2023/07/16 11:17:24;;;;;;;3.58;1.08;;;24.00;91.60;;;;;;4971656;28;20077;-79
2023/07/16 11:19:52;;;;;;;4.03;1.77;;;25.10;90.70;;;;;;4954360;28;20090;-79
2023/07/16 11:22:18;;;;;;;2.05;1.00;;;25.40;91.50;;;;;;4954170;28;20065;-78
2023/07/16 11:24:46;;;;;;;1.92;1.05;;;25.00;90.70;;;;;;4971656;28;20023;-79
2023/07/16 11:27:31;;;;;;;3.08;1.48;;;24.50;91.40;;;;;;4954107;28;20251;-78
2023/07/16 11:30:00;;;;;;;1.13;1.00;;;23.90;93.10;;;;;;4971505;28;20110;-79
2023/07/16 11:32:26;;;;;;;4.53;1.63;;;23.00;93.50;;;;;;4954492;28;20034;-78
2023/07/16 11:34:55;;;;;;;6.85;1.63;;;22.40;93.80;;;;;;4953665;28;20035;-79
2023/07/16 11:37:21;;;;;;;1.63;1.13;;;22.30;94.80;;;;;;4954639;28;20123;-77
2023/07/16 11:39:48;;;;;;;3.42;1.80;;;22.30;94.50;;;;;;4973706;28;20049;-79
2023/07/16 11:42:14;;;;;;;0.90;0.90;;;22.20;94.60;;;;;;4954591;28;20027;-79
2023/07/16 11:44:40;;;;;;;2.08;1.10;;;22.50;94.40;;;;;;4954312;28;20515;-79
2023/07/16 11:47:06;;;;;;;2.17;1.00;;;23.10;93.10;;;;;;4953742;28;20039;-79
2023/07/16 11:49:31;;;;;;;3.72;1.17;;;23.20;93.40;;;;;;4953567;28;20026;-79
2023/07/16 11:51:59;;;;;;;1.83;0.80;;;23.20;93.90;;;;;;4971043;28;20022;-79
2023/07/16 11:54:24;;;;;;;3.60;1.08;;;22.90;94.90;;;;;;4953614;28;20027;-78
2023/07/16 11:56:50;;;;;;;3.83;1.63;;;22.50;93.90;;;;;;4953934;28;20058;-78
2023/07/16 11:59:20;;;;;;;4.35;1.70;;;22.60;94.40;;;;;;4971004;28;20089;-79
2023/07/16 12:01:48;;;;;;;5.43;1.35;;;22.00;95.20;;;;;;4970910;28;20105;-79
2023/07/16 12:04:14;;;;;;;5.97;1.17;;;21.80;96.60;;;;;;4953564;28;20070;-80
2023/07/16 12:06:39;;;;;;;8.48;1.23;;;21.90;95.60;;;;;;4953145;28;20093;-78
2023/07/16 12:09:05;;;;;;;2.55;0.98;;;22.00;96.30;;;;;;4970890;28;20031;-77
2023/07/16 12:11:31;;;;;;;2.58;1.00;;;22.40;95.20;;;;;;4953589;28;20027;-78
2023/07/16 12:13:57;;;;;;;4.95;1.63;;;22.40;94.90;;;;;;4970614;28;20436;-78
2023/07/16 12:16:22;;;;;;;5.03;2.72;;;22.30;95.30;;;;;;4953357;28;20435;-79
2023/07/16 12:18:48;;;;;;;3.08;1.13;;;22.30;95.20;;;;;;4970494;28;20061;-79
2023/07/16 12:21:14;;;;;;;4.05;1.63;;;22.30;94.80;;;;;;4970443;28;20047;-79
2023/07/16 12:23:39;;;;;;;5.15;1.33;;;22.30;95.40;;;;;;4971502;28;20053;-79
2023/07/16 12:26:05;;;;;;;3.60;1.00;;;22.00;95.40;;;;;;4953595;28;20155;-79
2023/07/16 12:28:30;;;;;;;1.85;1.00;;;22.00;96.20;;;;;;4953526;28;20031;-78
2023/07/16 12:30:56;;;;;;;4.60;1.48;;;21.90;96.60;;;;;;4970722;28;20090;-79
2023/07/16 12:33:22;;;;;;;4.60;1.48;;;22.00;96.00;;;;;;4970662;28;20050;-79
2023/07/16 12:35:47;;;;;;;2.97;1.35;;;22.40;96.90;;;;;;4970120;28;20423;-79
2023/07/16 12:38:13;;;;;;;6.72;1.77;;;22.60;95.10;;;;;;4970339;28;20023;-79
2023/07/16 12:40:40;;;;;;;2.90;1.30;;;22.80;95.50;;;;;;4953128;28;20027;-78
2023/07/16 12:43:06;;;;;;;5.40;1.80;;;22.80;94.60;;;;;;4970615;28;20023;-78
2023/07/16 12:45:32;;;;;;;1.10;0.80;;;22.70;94.40;;;;;;4953395;28;20554;-78